Estación meteorológica de Montseny - Vallcàrquera (Vallès Oriental, Parc Natural del Montseny)

Consulta los datos en tiempo real de la estación meteorológica de Montseny - Vallcàrquera





Hora UTC 10:45
Temperatura 19.2 ºC
Humedad 55.7 %
Pluja 0.0 mm
Velocidad viento 2.8 km/h
Dirección viento S
Radiación solar 757.9 W/m²

Datos diarios 2026-05-07



Hora UTC (invierno +1h; verano +2h)
Temperatura (ºC) Humedad (%) Velocidad viento (km/h) Precipitación (mm) Radiación solar (W/m²)
Hora UTC Aire Humedad Vel. Dir. Vel. Max Dir. Intent. máx 5 min. Rad. Sol.
00:05 9.9 93.4 0.9 NNE 0.9 NE 0.0 0.0
00:10 9.9 93.1 0.3 NE 1.8 ENE 0.0 0.0
00:15 9.8 93.4 1.6 NE 3.9 NE 0.0 0.0
00:20 9.7 93.2 1.8 NNE 3.9 NNE 0.0 0.0
00:25 9.6 93.1 0.6 NNW 1.8 NNW 0.0 0.0
00:30 9.5 93.9 1.2 N 2.5 NNW 0.0 0.0
00:35 9.4 94.1 2.2 NE 3.9 ENE 0.0 0.0
00:40 9.5 94.3 0.9 NNE 2.8 ENE 0.0 0.0
00:45 9.6 94.4 0.7 NNE 1.8 NE 0.0 0.0
00:50 9.7 94.4 0.4 N 1.8 N 0.0 0.0
00:55 9.7 94.3 1.1 NE 1.8 NE 0.0 0.0
01:00 9.6 94.2 1.1 NE 2.5 NE 0.0 0.0
01:05 9.6 94.2 1.3 NE 2.5 NE 0.0 0.0
01:10 9.5 94.1 1.3 NE 2.8 ENE 0.0 0.0
01:15 9.3 93.9 1.1 NE 2.8 ENE 0.0 0.0
01:20 9.1 94.0 1.4 ENE 2.8 ENE 0.0 0.0
01:25 8.9 94.6 1.0 NE 2.1 ENE 0.0 0.0
01:30 8.9 94.9 0.9 NNE 2.8 ENE 0.0 0.0
01:35 8.9 95.0 1.1 NNE 2.5 N 0.0 0.0
01:40 8.9 95.0 2.5 NE 4.9 ENE 0.0 0.0
01:45 8.9 94.6 2.3 ENE 4.6 ENE 0.0 0.0
01:50 8.7 94.7 2.6 ENE 4.9 ENE 0.0 0.0
01:55 8.8 95.0 3.0 ENE 4.9 ENE 0.0 0.0
02:00 8.9 94.7 2.1 ENE 3.5 E 0.0 0.0
02:05 8.9 94.9 1.7 ENE 3.9 ENE 0.0 0.0
02:10 9.0 94.9 1.4 NE 3.5 ENE 0.0 0.0
02:15 9.0 94.4 0.8 NE 2.5 ENE 0.0 0.0
02:20 8.9 94.4 0.8 NE 2.5 NE 0.0 0.0
02:25 8.8 94.6 1.5 NE 2.8 NE 0.0 0.0
02:30 8.8 94.2 1.8 NNE 3.5 NE 0.0 0.0
02:35 8.6 94.3 1.6 NE 3.9 NE 0.0 0.0
02:40 8.5 94.4 0.3 NNE 2.1 N 0.0 0.0
02:45 8.3 94.3 1.0 NNE 2.5 NE 0.0 0.0
02:50 8.3 95.0 1.1 NNE 1.8 N 0.0 0.0
02:55 8.2 95.2 1.4 NNE 2.5 N 0.0 0.0
03:00 8.2 95.4 1.2 NNE 2.8 NE 0.0 0.0
03:05 8.1 95.1 1.1 N 2.5 N 0.0 0.0
03:10 8.0 95.3 1.1 NE 2.5 ENE 0.0 0.0
03:15 7.9 95.4 1.4 N 2.1 N 0.0 0.0
03:20 7.9 95.5 1.0 NE 2.5 NE 0.0 0.0
03:25 7.8 95.7 1.2 NNE 2.5 N 0.0 0.0
03:30 7.8 95.7 0.7 N 1.8 NNE 0.0 0.0
03:35 7.7 95.6 0.9 NNE 2.1 NE 0.0 0.0
03:40 7.8 96.0 1.1 NNE 3.2 NNE 0.0 0.0
03:45 7.7 95.4 1.2 NE 2.5 NE 0.0 0.0
03:50 7.5 95.8 1.8 NE 5.3 ENE 0.0 0.0
03:55 7.5 96.0 2.9 NE 5.3 ENE 0.0 0.0
04:00 7.5 96.2 2.0 NE 3.2 NE 0.0 0.0
04:05 7.5 96.1 1.2 NNE 2.5 NE 0.0 0.0
04:10 7.5 96.0 0.8 NNE 2.1 NE 0.0 0.0
04:15 7.3 95.9 1.6 NE 3.9 NE 0.0 0.0
04:20 7.3 96.0 1.1 NE 2.8 NE 0.0 0.0
04:25 7.2 96.0 0.1 NE 0.7 NE 0.0 0.0
04:30 7.2 96.2 1.3 NNE 2.5 NE 0.0 0.0
04:35 7.3 96.5 1.0 NE 2.1 NNE 0.0 0.4
04:40 7.2 96.3 0.7 NNE 1.8 N 0.0 0.9
04:45 7.1 96.3 1.7 NE 3.2 ENE 0.0 2.4
04:50 7.1 96.4 3.0 ENE 6.0 ENE 0.0 4.1
04:55 7.1 96.5 1.9 ENE 4.2 ENE 0.0 6.2
05:00 7.0 96.5 1.4 ENE 3.5 ENE 0.0 8.2
05:05 7.1 96.7 2.4 NE 4.2 ENE 0.0 11.0
05:10 7.1 96.7 1.1 NNE 2.1 N 0.0 13.5
05:15 7.2 96.9 1.7 NE 3.9 NE 0.0 16.3
05:20 7.3 96.7 0.6 NNE 2.1 NE 0.0 18.1
05:25 7.3 96.7 0.9 NNE 2.8 NE 0.0 20.3
05:30 7.4 96.8 1.2 NNE 3.2 NE 0.0 23.0
05:35 7.4 96.6 0.7 N 1.8 N 0.0 24.9
05:40 7.4 96.7 1.0 NE 2.8 ENE 0.0 26.7
05:45 7.5 96.8 1.1 NE 2.8 ENE 0.0 29.3
05:50 7.4 96.7 1.7 NE 3.2 ENE 0.0 31.2
05:55 7.5 96.8 2.6 ENE 3.9 ENE 0.0 33.7
06:00 7.5 96.9 2.2 NE 4.2 ENE 0.0 42.6
06:05 7.7 97.3 3.6 ENE 5.3 ENE 0.0 201.4
06:10 8.3 96.5 2.2 ENE 4.2 ENE 0.0 233.3
06:15 9.1 93.5 1.5 NE 2.8 ENE 0.0 246.9
06:20 9.6 89.9 2.0 ENE 4.2 NE 0.0 256.5
06:25 9.9 88.3 2.7 ENE 4.9 ENE 0.0 269.0
06:30 10.3 87.8 2.8 E 5.6 ENE 0.0 271.4
06:35 10.3 86.7 2.6 ENE 4.6 ENE 0.0 104.7
06:40 9.9 89.2 1.9 NE 3.5 ENE 0.0 54.9
06:45 9.8 90.9 1.5 N 2.5 N 0.0 60.5
06:50 9.6 91.7 0.9 NE 3.9 E 0.0 74.1
06:55 9.6 92.1 0.6 ENE 2.1 ENE 0.0 72.9
07:00 9.6 93.1 0.2 NNE 1.1 ENE 0.0 78.7
07:05 9.7 93.7 0.7 N 1.8 N 0.0 102.0
07:10 10.0 93.9 0.5 ENE 2.1 ENE 0.0 185.9
07:15 10.6 92.1 1.5 ENE 3.5 E 0.0 328.9
07:20 11.2 89.7 0.4 NE 2.1 NNE 0.0 170.0
07:25 11.7 88.5 0.3 ENE 2.1 E 0.0 426.4
07:30 12.8 80.0 3.4 ENE 8.1 E 0.0 416.8
07:35 13.0 79.6 3.6 ESE 8.1 E 0.0 238.7
07:40 13.1 80.0 1.7 ESE 4.2 SE 0.0 470.7
07:45 13.6 78.1 2.4 NE 8.1 E 0.0 465.5
07:50 14.2 76.9 2.5 ESE 6.0 S 0.0 497.7
07:55 14.6 74.9 1.8 ESE 6.4 SSE 0.0 655.0
08:00 14.9 71.8 1.6 NNE 3.5 SE 0.0 461.1
08:05 14.9 72.8 2.7 ESE 8.5 SW 0.0 635.5
08:10 15.2 72.8 2.0 S 4.9 ENE 0.0 654.8
08:15 15.2 70.6 2.8 ENE 10.2 ENE 0.0 664.9
08:20 15.4 68.8 1.7 SSE 5.6 SW 0.0 635.5
08:25 15.8 66.6 2.1 SE 7.4 S 0.0 637.0
08:30 15.5 66.4 3.3 E 7.4 E 0.0 745.7
08:35 16.0 67.4 1.7 WNW 5.6 N 0.0 686.7
08:40 16.1 64.9 2.3 SSW 4.9 SSW 0.0 697.4
08:45 16.2 63.9 1.6 NW 5.3 W 0.0 754.1
08:50 16.7 63.6 2.3 SSW 8.1 S 0.0 551.6
08:55 15.7 67.0 3.9 SW 8.1 SW 0.0 231.4
09:00 15.5 67.3 2.2 ESE 6.4 ESE 0.0 525.6
09:05 15.3 66.2 4.8 ENE 8.5 ENE 0.0 483.8
09:10 15.9 68.8 3.1 ESE 9.2 S 0.0 842.0
09:15 17.0 63.4 2.4 SSE 6.0 E 0.0 611.3
09:20 17.1 62.3 3.5 E 9.5 ESE 0.0 963.0
09:25 17.4 62.9 5.3 SE 15.2 S 0.0 947.0
09:30 17.7 61.1 3.6 SSE 11.3 SSW 0.0 903.0
09:35 17.6 60.2 4.7 SSW 11.6 SW 0.0 902.0
09:40 17.4 59.6 4.4 SE 8.5 E 0.0 966.0
09:45 17.8 60.7 3.2 SSE 8.1 SE 0.0 977.0
09:50 17.9 58.3 4.5 SE 12.4 E 0.0 937.0
09:55 17.5 59.3 3.4 SE 10.6 E 0.0 945.0
10:00 17.7 57.1 3.8 ESE 8.8 E 0.0 910.0
10:05 17.4 57.6 4.5 E 11.6 ESE 0.0 948.0
10:10 17.1 58.8 5.7 E 11.3 ENE 0.0 960.0
10:15 17.8 57.6 3.5 S 9.9 SSW 0.0 829.0
10:20 17.8 55.4 4.6 ENE 10.2 S 0.0 395.0
10:25 17.6 58.9 4.4 ESE 10.2 ESE 0.0 924.0
10:30 18.3 56.0 4.1 SSE 10.6 SSE 0.0 724.3
10:35 18.3 55.1 2.8 SSW 8.8 SSW 0.0 1064.0
10:40 18.9 55.6 3.9 ESE 16.6 ESE 0.0 979.0
10:45 19.2 55.7 2.8 S 9.2 SSE 0.0 757.9
Máxima 19.2 97.3 5.7 E 16.6 ESE 0.0 1064.0
Mínima 7.0 55.1
Total 0.0